Downs, KS

11:15 AM CST on March 04, 2015 (GMT -0600)
Cawker City | Change Station
CLOSE
Current Station
Personal Weather Station
Location: Cawker City, KS
Elevation: 1490 ft
Nearby Weather Stations

Elev 1490 ft 39.51 °N, 98.44 °W | Updated 11 seconds ago

Partly Cloudy
Partly Cloudy
27.9 °F
Feels Like 22 °F
N
5.8
Wind Variable Wind from NW
Gusts 7.4 mph

Today
High -- | Low -- °F
--% Chance of Precip.
Yesterday
High -- | Low -- °F
Precip. -- in
7:02 AM 6:29 PM
Waxing Gibbous, 99% visible
Pressure 30.37 in
Visibility 10.0 miles
Clouds Scattered Clouds 12000 ft
Windchill 22 °F
Dew Point -7 °F
Humidity 21%
Rainfall 0.00 in
Snow Depth Not available.
UV 4 out of 12
Pollen .50 out of 12
Air Quality Not available.
Flu Activity Not available.
METAR KRSL 041653Z AUTO 36015KT 10SM SCT120 M03/M13 A3030 RMK AO2 SLP284 T10331133

More Conditions Fewer Conditions

Pressure 30.37 in
Visibility 10.0 miles
Clouds Scattered Clouds 12000 ft
Windchill 22 °F
Dew Point -7 °F
Humidity 21%
Rainfall 0.00 in
Snow Depth Not available.
UV 4 out of 12
Pollen .50 out of 12
Air Quality Not available.
Flu Activity Not available.
METAR KRSL 041653Z AUTO 36015KT 10SM SCT120 M03/M13 A3030 RMK AO2 SLP284 T10331133

More Conditions Fewer Conditions

10-Day Weather Forecast

Almanac

Astronomy

Mar. 04, 2015 Rise Set
Actual Time
Civil Twilight
Nautical Twilight
Astronomical Twilight
Moon
Length of Visible Light
Length of Day
Tomorrow will be .
, % of the Moon is Illuminated

Today's Extremes

State Highs State Lows

Community

WunderPhotos

Upload Photos

1,802,512 photos uploaded!

WunderBlogs® & News

Nearby

Air Quality

  Air Quality AQ Index Pollutant
Not available.

Snow Depth

Station Depth Elevation

Earthquake Activity

City Distance Mag. Time & Date
Minimum magnitude displayed is 2.5.

Coastal Water Temperatures

Place Temperature

Nearby Weather Stations